• Join FlightAware (Why Join?)
  • Login
  • US Flag 
01:36AM EDT


 

Airport Tracker/Info


-or-


 

Live Flight TrackerFlight Track Log ✈ N983CA ✈ 24-Apr-2013 ✈ KSFO - KPSP

Flight Track Log - Related Links

Times and Time Zones

All times are in EDT time to prevent confusion due to time zone crossing. See the N983CA flight status page for this flight to view local times or setup timezone preferences in your user account.

Time Position Orientation Groundspeed Altitude Reporting Facility
EDT Latitude Longitude Course Direction KTS MPH feet Rate Location/Type
11:21AM 37.6667 -122.3667 133° Southeast 181 208 2,600  Level Northern Cal TRACON
11:22AM 37.7000 -122.4333 302° West 273 314 4,400 2,340 Climbing Northern Cal TRACON
11:23AM 37.6333 -122.4667 202° Southwest 285 328 7,300 2,640 Climbing Northern Cal TRACON
11:24AM 37.3809 -122.2637 136° Southeast  Level FlightAware Approximate
11:24AM 37.6092 -122.4706 187° South 273 314 8,200  Level Oakland Center
11:25AM 37.2938 -122.1542 122° Southeast  Level FlightAware Approximate
11:25AM 37.5289 -122.4639 176° South 287 330 10,800  Level Oakland Center
11:26AM 37.2131 -122.0372 135° Southeast  Level FlightAware Approximate
11:26AM 37.4681 -122.3853 134° Southeast 318 366 12,500  Level Oakland Center
11:27AM 37.1452 -121.9491 133° Southeast  Level FlightAware Approximate
11:27AM 37.4114 -122.2917 127° Southeast 337 388 14,600  Level Oakland Center
11:28AM 37.3519 -122.1956 128° Southeast 350 403 16,400 1,860 Climbing Oakland Center
11:29AM 37.2783 -122.0767 128° Southeast 359 413 18,500 1,740 Climbing Oakland Center
11:30AM 37.2161 -121.9767 128° Southeast 365 420 20,000 1,500 Climbing Oakland Center
11:31AM 37.1514 -121.8736 128° Southeast 374 430 21,600 1,320 Climbing Oakland Center
11:32AM 37.0917 -121.7761 128° Southeast 381 438 22,700 1,020 Climbing Oakland Center
11:33AM 37.0175 -121.6622 129° Southeast 392 451 23,700 1,080 Climbing Oakland Center
11:34AM 36.9517 -121.5486 126° Southeast 401 461 24,900 1,020 Climbing Oakland Center
11:36AM 36.8831 -121.2753 107° East 411 473 26,900 660 Climbing Oakland Center
11:37AM 36.8403 -121.1181 109° East 423 487 27,000  Climbing Oakland Center
11:38AM 36.7772 -120.9897 121° Southeast 456 525 27,000  Level Oakland Center
11:39AM 36.6917 -120.8706 132° Southeast 460 529 27,000 -60 Level Oakland Center
11:40AM 36.6044 -120.7489 132° Southeast 472 543 26,900  Descending Oakland Center
11:41AM 36.5236 -120.6328 131° Southeast 444 511 27,000  Climbing Oakland Center
11:42AM 36.4392 -120.5144 132° Southeast 455 524 27,000  Level Oakland Center
11:43AM 36.3350 -120.3675 131° Southeast 475 547 27,000  Level Oakland Center
11:44AM 36.2472 -120.2458 132° Southeast 475 547 27,000  Level Oakland Center
11:45AM 36.1594 -120.1231 132° Southeast 473 544 27,000  Level Oakland Center
11:46AM 36.0719 -120.0017 132° Southeast 470 541 27,000  Level Oakland Center
11:47AM 35.9858 -119.8858 133° Southeast 458 527 27,000  Level Oakland Center
11:48AM 35.9006 -119.7681 132° Southeast 456 525 27,000  Level Oakland Center
11:49AM 35.8133 -119.6489 132° Southeast 459 528 27,000  Level Oakland Center
11:50AM 35.7261 -119.5294 132° Southeast 463 533 27,000  Level Oakland Center
11:51AM 35.6389 -119.4117 132° Southeast 465 535 27,000  Level Oakland Center
11:52AM 35.6061 -119.3647 131° Southeast 461 531 27,000  Level Los Angeles Center
11:53AM 35.5192 -119.2483 133° Southeast 461 531 27,000  Level Los Angeles Center
11:54AM 35.4331 -119.1311 132° Southeast 461 531 27,000  Level Los Angeles Center
11:55AM 35.3300 -118.9908 132° Southeast 461 531 27,000  Level Los Angeles Center
11:56AM 35.2436 -118.8739 132° Southeast 463 533 27,000  Level Los Angeles Center
11:57AM 35.1383 -118.7347 133° Southeast 465 535 27,000  Level Los Angeles Center
11:58AM 35.0519 -118.6200 133° Southeast 460 529 27,000  Level Los Angeles Center
11:59AM 34.9661 -118.5069 133° Southeast 455 524 27,000  Level Los Angeles Center
12:00PM 34.8781 -118.3914 133° Southeast 430 495 27,000  Level Los Angeles Center
12:01PM 34.8011 -118.2906 133° Southeast 414 476 27,000 -480 Level Los Angeles Center
12:02PM 34.7217 -118.1850 132° Southeast 422 486 26,100 -2,160 Descending Los Angeles Center
12:03PM 34.6422 -118.0811 133° Southeast 424 488 22,600 -2,460 Descending Los Angeles Center
12:04PM 34.5728 -117.9367 120° Southeast 418 481 21,100 -1,320 Descending Los Angeles Center
12:05PM 34.5147 -117.8119 119° Southeast 419 482 19,900 -1,800 Descending Los Angeles Center
12:06PM 34.4633 -117.6997 119° Southeast 397 457 17,400 -1,380 Descending Los Angeles Center
12:07PM 34.4147 -117.5947 119° Southeast 366 421 17,100 -180 Descending Los Angeles Center
12:08PM 34.3608 -117.4736 118° Southeast 357 411 17,100  Level Los Angeles Center
12:09PM 34.3108 -117.3658 119° Southeast 365 420 17,100 -420 Level Los Angeles Center
12:11PM 34.2606 -117.2597 120° Southeast 363 418 16,300 -1,020 Descending Los Angeles Center
12:12PM 34.2131 -117.1594 120° Southeast 333 383 15,000 -1,080 Descending Los Angeles Center
12:13PM 34.1692 -117.0664 120° Southeast 319 367 14,100 -480 Descending Los Angeles Center
12:14PM 34.1272 -116.9756 119° Southeast 313 360 14,100  Level Los Angeles Center
12:14PM 34.0833 -116.9000 125° Southeast 309 356 14,100 -120 Level Southern California TRACON
12:15PM 34.0800 -116.8739 99° East 309 356 14,000 -300 Descending Los Angeles Center
12:16PM 34.0369 -116.7822 120° Southeast 315 362 13,700 -360 Descending Los Angeles Center
12:17PM 34.0008 -116.7025 119° Southeast 271 312 13,300 -1,320 Descending Los Angeles Center
12:18PM 33.9692 -116.6358 120° Southeast 230 265 11,000 -2,340 Descending Los Angeles Center
12:19PM 33.9403 -116.5778 121° Southeast 208 239 8,500 -2,280 Descending Los Angeles Center
12:20PM 33.9083 -116.5083 119° Southeast 209 241 6,300 -2,160 Descending Los Angeles Center
12:21PM 33.8500 -116.4333 133° Southeast 176 203 3,000 -1,500 Descending Southern California TRACON
12:22PM 33.8167 -116.4000 140° Southeast 160 184 2,600 -480 Descending Southern California TRACON
12:23PM 33.7833 -116.4333 220° Southwest 150 173 2,100 -540 Descending Southern California TRACON